createdAt,value
2018-02-19T00:02:12.683Z,41.33
2018-02-19T00:04:41.640Z,36.80
2018-02-19T00:07:10.613Z,36.70
2018-02-19T00:09:40.002Z,44.87
2018-02-19T00:12:09.793Z,36.30
2018-02-19T00:14:38.749Z,39.73
2018-02-19T00:17:08.483Z,41.87
2018-02-19T00:19:37.447Z,39.27
2018-02-19T00:22:06.404Z,42.37
2018-02-19T00:24:35.817Z,36.50
2018-02-19T00:27:04.802Z,40.30
2018-02-19T00:29:34.160Z,37.17
2018-02-19T00:32:03.891Z,38.03
2018-02-19T00:34:33.637Z,40.20
2018-02-19T00:37:02.610Z,41.93
2018-02-19T00:39:31.602Z,42.23
2018-02-19T00:42:00.589Z,40.87
2018-02-19T00:44:30.313Z,44.87
2018-02-19T00:47:00.074Z,43.57
2018-02-19T00:49:29.425Z,44.87
2018-02-19T00:51:59.134Z,41.53
2018-02-19T00:54:28.590Z,35.20
2018-02-19T00:56:58.645Z,38.33
2018-02-19T00:59:27.981Z,37.03
2018-02-19T01:01:57.402Z,42.50
2018-02-19T01:04:26.492Z,47.80
2018-02-19T01:06:55.537Z,48.10
2018-02-19T01:09:25.252Z,37.90
2018-02-19T01:11:55.024Z,38.93
2018-02-19T01:14:25.484Z,39.10
2018-02-19T01:16:55.299Z,42.67
2018-02-19T01:19:24.314Z,42.00
2018-02-19T01:21:53.662Z,38.10
2018-02-19T01:24:22.607Z,39.83
2018-02-19T01:26:51.585Z,38.67
2018-02-19T01:29:20.921Z,36.90
2018-02-19T01:31:49.968Z,47.27
2018-02-19T01:34:19.320Z,39.13
2018-02-19T01:36:48.279Z,42.23
2018-02-19T01:39:17.765Z,43.97
2018-02-19T01:41:46.773Z,40.47
2018-02-19T01:44:15.713Z,42.67
2018-02-19T01:46:45.092Z,43.40
2018-02-19T01:49:14.143Z,40.10
2018-02-19T01:51:43.113Z,44.27
2018-02-19T01:54:13.568Z,44.77
2018-02-19T01:56:43.420Z,44.37
2018-02-19T01:59:12.370Z,42.97
2018-02-19T02:01:42.095Z,35.67
2018-02-19T02:04:11.511Z,42.97
2018-02-19T02:06:41.214Z,41.93
2018-02-19T02:09:10.226Z,39.33
2018-02-19T02:11:39.193Z,37.63
2018-02-19T02:14:08.143Z,42.33
2018-02-19T02:16:37.095Z,42.33
2018-02-19T02:19:06.119Z,40.07
2018-02-19T02:21:35.883Z,35.53
2018-02-19T02:24:05.576Z,43.53
2018-02-19T02:26:34.642Z,40.23
2018-02-19T02:29:03.609Z,42.80
2018-02-19T02:31:32.979Z,39.50
2018-02-19T02:34:02.336Z,35.90
2018-02-19T02:36:31.759Z,39.57
2018-02-19T02:39:01.569Z,42.57
2018-02-19T02:41:30.525Z,37.13
2018-02-19T02:43:59.826Z,35.20
2018-02-19T02:46:28.760Z,36.13
2018-02-19T02:48:58.521Z,37.10
2018-02-19T02:51:27.460Z,42.13
2018-02-19T02:53:57.486Z,39.10
2018-02-19T02:56:27.197Z,38.27
2018-02-19T02:58:56.582Z,37.77
2018-02-19T03:01:26.340Z,37.27
2018-02-19T03:03:56.061Z,41.43
2018-02-19T03:06:25.798Z,38.33
2018-02-19T03:08:56.276Z,45.33
2018-02-19T03:11:26.204Z,38.40
2018-02-19T03:13:55.528Z,36.10
2018-02-19T03:16:24.477Z,35.57
2018-02-19T03:18:53.446Z,36.47
2018-02-19T03:21:22.801Z,38.73
2018-02-19T03:23:51.987Z,38.10
2018-02-19T03:26:20.959Z,38.00
2018-02-19T03:28:49.918Z,33.93
2018-02-19T03:31:18.927Z,36.07
2018-02-19T03:33:48.653Z,36.73
2018-02-19T03:36:17.713Z,34.60
2018-02-19T03:38:47.417Z,37.20
2018-02-19T03:41:17.178Z,40.60
2018-02-19T03:43:46.691Z,41.47
2018-02-19T03:46:15.758Z,38.17
2018-02-19T03:48:44.975Z,35.50
2018-02-19T03:51:14.111Z,37.17
2018-02-19T03:53:43.878Z,33.43
2018-02-19T03:56:12.865Z,34.60
2018-02-19T03:58:42.636Z,39.73
2018-02-19T04:01:11.602Z,35.73
2018-02-19T04:03:40.579Z,38.37
2018-02-19T04:06:09.574Z,42.93
2018-02-19T04:08:38.517Z,30.83
2018-02-19T04:11:08.384Z,42.93
2018-02-19T04:13:37.328Z,32.20
2018-02-19T04:16:06.284Z,36.70
2018-02-19T04:18:35.249Z,43.23
2018-02-19T04:21:04.236Z,33.70
2018-02-19T04:23:33.188Z,39.80
2018-02-19T04:26:02.134Z,36.03
2018-02-19T04:28:31.137Z,38.00
2018-02-19T04:31:00.085Z,38.40
2018-02-19T04:33:29.788Z,42.47
2018-02-19T04:35:58.812Z,35.23
2018-02-19T04:38:27.770Z,37.93
2018-02-19T04:40:56.717Z,37.80
2018-02-19T04:43:25.713Z,33.40
2018-02-19T04:46:08.325Z,31.07
2018-02-19T04:48:37.755Z,34.70
2018-02-19T04:51:07.554Z,36.37
2018-02-19T04:53:37.290Z,36.27
2018-02-19T04:56:06.583Z,33.77
2018-02-19T04:58:35.534Z,41.40
2018-02-19T05:01:04.658Z,43.00
2018-02-19T05:03:33.785Z,36.50
2018-02-19T05:06:03.505Z,35.27
2018-02-19T05:08:32.470Z,37.27
2018-02-19T05:11:01.445Z,36.67
2018-02-19T05:13:31.153Z,39.33
2018-02-19T05:16:01.183Z,34.97
2018-02-19T05:18:30.129Z,31.90
2018-02-19T05:20:59.081Z,36.23
2018-02-19T05:23:28.041Z,34.97
2018-02-19T05:25:57.794Z,37.80
2018-02-19T05:28:26.745Z,36.80
2018-02-19T05:30:56.484Z,35.33
2018-02-19T05:33:25.440Z,31.70
2018-02-19T05:35:54.786Z,44.03
2018-02-19T05:38:24.506Z,35.70
2018-02-19T05:40:53.959Z,32.07
2018-02-19T05:43:22.904Z,35.57
2018-02-19T05:45:51.868Z,35.10
2018-02-19T05:48:21.652Z,39.63
2018-02-19T05:50:51.366Z,34.87
2018-02-19T05:53:21.164Z,35.50
2018-02-19T05:55:50.868Z,35.97
2018-02-19T05:58:19.912Z,43.27
2018-02-19T06:00:49.278Z,44.83
2018-02-19T06:03:18.271Z,36.23
2018-02-19T06:05:48.009Z,43.50
2018-02-19T06:08:17.735Z,40.30
2018-02-19T06:10:47.505Z,44.07
2018-02-19T06:13:17.266Z,42.07
2018-02-19T06:15:46.289Z,39.60
2018-02-19T06:18:15.233Z,43.13
2018-02-19T06:20:44.193Z,33.87
2018-02-19T06:23:14.002Z,36.53
2018-02-19T06:25:42.933Z,40.97
2018-02-19T06:28:12.691Z,37.90
2018-02-19T06:30:42.420Z,34.53
2018-02-19T06:33:11.372Z,39.87
2018-02-19T06:38:15.491Z,40.87
2018-02-19T06:40:44.867Z,43.53
2018-02-19T06:43:13.810Z,35.03
2018-02-19T06:45:43.457Z,41.87
2018-02-19T06:48:13.541Z,40.13
2018-02-19T06:50:42.925Z,39.23
2018-02-19T06:53:11.868Z,38.40
2018-02-19T06:55:40.833Z,51.40
2018-02-19T06:58:10.532Z,43.17
2018-02-19T07:00:40.277Z,41.53
2018-02-19T07:03:09.241Z,41.40
2018-02-19T07:05:38.966Z,40.60
2018-02-19T07:08:08.742Z,35.83
2018-02-19T07:10:39.230Z,43.93
2018-02-19T07:13:08.214Z,35.07
2018-02-19T07:15:38.307Z,39.00
2018-02-19T07:18:08.161Z,35.63
2018-02-19T07:20:37.900Z,39.27
2018-02-19T07:23:06.875Z,37.50
2018-02-19T07:25:35.922Z,39.80
2018-02-19T07:28:05.603Z,39.20
2018-02-19T07:30:36.241Z,39.87
2018-02-19T07:33:06.194Z,40.80
2018-02-19T07:35:41.669Z,40.87
2018-02-19T07:38:10.966Z,46.03
2018-02-19T07:40:39.957Z,37.53
2018-02-19T07:43:08.951Z,41.47
2018-02-19T07:45:38.815Z,35.87
2018-02-19T07:48:08.690Z,37.87
2018-02-19T07:50:38.793Z,37.93
2018-02-19T07:53:07.803Z,46.37
2018-02-19T07:55:37.186Z,41.77
2018-02-19T07:58:07.357Z,39.97
2018-02-19T08:00:36.363Z,44.80
2018-02-19T08:03:05.761Z,37.13
2018-02-19T08:05:35.638Z,36.53
2018-02-19T08:08:04.718Z,36.60
2018-02-19T08:10:35.261Z,39.07
2018-02-19T08:13:04.286Z,38.80
2018-02-19T08:15:34.047Z,41.97
2018-02-19T08:18:03.069Z,36.60
2018-02-19T08:20:33.982Z,41.77
2018-02-19T08:23:02.962Z,44.97
2018-02-19T08:25:38.749Z,34.43
2018-02-19T08:28:09.370Z,37.57
2018-02-19T08:30:38.835Z,39.87
2018-02-19T08:33:07.907Z,33.33
2018-02-19T08:35:37.710Z,37.30
2018-02-19T08:38:06.709Z,34.17
2018-02-19T08:40:35.675Z,39.43
2018-02-19T08:43:04.693Z,29.97
2018-02-19T08:45:34.915Z,40.20
2018-02-19T08:48:04.929Z,37.97
2018-02-19T08:50:34.661Z,41.37
2018-02-19T08:53:04.418Z,35.63
2018-02-19T08:55:34.974Z,35.00
2018-02-19T08:58:04.751Z,41.67
2018-02-19T09:00:34.552Z,36.60
2018-02-19T09:03:03.510Z,41.23
2018-02-19T09:05:33.207Z,42.27
2018-02-19T09:08:04.382Z,35.67
2018-02-19T09:10:34.156Z,44.43
2018-02-19T09:13:03.895Z,36.90
2018-02-19T09:15:34.400Z,41.67
2018-02-19T09:18:03.420Z,43.13
2018-02-19T09:20:35.418Z,47.80
2018-02-19T09:23:04.783Z,33.97
2018-02-19T09:25:34.581Z,35.33
2018-02-19T09:28:03.642Z,37.47
2018-02-19T09:30:33.520Z,37.80
2018-02-19T09:33:03.349Z,43.97
2018-02-19T09:35:32.500Z,43.23
2018-02-19T09:38:02.445Z,46.47
2018-02-19T09:40:32.603Z,34.70
2018-02-19T09:43:02.959Z,34.97
2018-02-19T09:45:32.493Z,43.40
2018-02-19T09:48:01.907Z,40.37
2018-02-19T09:50:31.948Z,37.23
2018-02-19T09:53:01.451Z,36.20
2018-02-19T09:55:30.562Z,36.80
2018-02-19T09:58:01.065Z,38.60
2018-02-19T10:00:30.165Z,35.70
2018-02-19T10:02:59.152Z,37.80
2018-02-19T10:05:30.570Z,40.70
2018-02-19T10:08:00.418Z,39.80
2018-02-19T10:10:29.357Z,32.57
2018-02-19T10:12:58.329Z,33.50
2018-02-19T10:15:27.452Z,37.83
2018-02-19T10:17:57.117Z,35.87
2018-02-19T10:20:26.848Z,36.03
2018-02-19T10:22:56.925Z,34.50
2018-02-19T10:25:25.992Z,39.10
2018-02-19T10:27:55.713Z,40.83
2018-02-19T10:30:25.456Z,35.70
2018-02-19T10:32:55.181Z,40.45
2018-02-19T10:35:25.407Z,39.80
2018-02-19T10:37:54.882Z,37.00
2018-02-19T10:40:26.078Z,35.90
2018-02-19T10:42:55.129Z,36.57
2018-02-19T10:45:24.885Z,38.33
2018-02-19T10:47:54.323Z,35.47
2018-02-19T10:50:24.079Z,38.00
2018-02-19T10:52:53.134Z,38.23
2018-02-19T10:55:23.024Z,38.63
2018-02-19T10:57:56.029Z,34.87
2018-02-19T11:00:40.666Z,36.93
2018-02-19T11:03:10.096Z,33.50
2018-02-19T11:05:39.562Z,38.70
2018-02-19T11:08:08.666Z,42.90
2018-02-19T11:10:38.049Z,37.00
2018-02-19T11:13:07.113Z,37.87
2018-02-19T11:15:36.112Z,43.47
2018-02-19T11:18:06.727Z,34.00
2018-02-19T11:23:26.969Z,37.30
2018-02-19T11:25:56.023Z,36.37
2018-02-19T11:28:25.822Z,36.77
2018-02-19T11:30:56.372Z,40.23
2018-02-19T11:33:25.387Z,32.90
2018-02-19T11:35:54.391Z,37.67
2018-02-19T11:38:23.758Z,37.50
2018-02-19T11:40:53.583Z,34.67
2018-02-19T11:43:23.338Z,35.00
2018-02-19T11:45:52.813Z,44.73
2018-02-19T11:48:21.829Z,36.83
2018-02-19T11:50:52.817Z,39.87
2018-02-19T11:53:23.336Z,36.27
2018-02-19T11:55:53.285Z,36.80
2018-02-19T11:58:23.383Z,37.00
2018-02-19T12:00:52.680Z,36.93
2018-02-19T12:03:21.682Z,33.40
2018-02-19T12:05:50.687Z,32.03
2018-02-19T12:08:20.384Z,33.30
2018-02-19T12:10:50.361Z,33.13
2018-02-19T12:13:19.362Z,36.07
2018-02-19T12:15:48.775Z,34.63
2018-02-19T12:18:17.770Z,33.80
2018-02-19T12:20:48.099Z,36.53
2018-02-19T12:23:18.516Z,33.33
2018-02-19T12:25:48.234Z,33.30
2018-02-19T12:28:18.324Z,36.23
2018-02-19T12:30:47.382Z,32.93
2018-02-19T12:33:16.536Z,34.40
2018-02-19T12:35:47.236Z,37.90
2018-02-19T12:38:17.168Z,33.90
2018-02-19T12:40:47.391Z,33.87
2018-02-19T12:43:16.417Z,31.70
2018-02-19T12:45:45.418Z,32.33
2018-02-19T12:48:14.613Z,34.20
2018-02-19T12:50:44.220Z,30.43
2018-02-19T12:53:14.082Z,34.43
2018-02-19T12:55:43.511Z,33.73
2018-02-19T12:58:12.561Z,34.50
2018-02-19T13:00:42.337Z,35.07
2018-02-19T13:03:11.434Z,33.77
2018-02-19T13:05:41.375Z,35.80
2018-02-19T13:08:11.869Z,34.53
2018-02-19T13:10:40.831Z,35.30
2018-02-19T13:13:09.845Z,32.80
2018-02-19T13:15:39.884Z,31.53
2018-02-19T13:18:08.839Z,31.30
2018-02-19T13:20:38.573Z,33.67
2018-02-19T13:23:07.545Z,33.70
2018-02-19T13:25:37.276Z,34.83
2018-02-19T13:28:06.625Z,32.50
2018-02-19T13:30:36.381Z,28.83
2018-02-19T13:33:05.357Z,34.70
2018-02-19T13:35:35.102Z,34.53
2018-02-19T13:38:04.498Z,38.60
2018-02-19T13:40:33.834Z,32.00
2018-02-19T13:43:02.798Z,34.57
2018-02-19T13:45:32.245Z,31.00
2018-02-19T13:48:01.610Z,36.57
2018-02-19T13:50:31.310Z,37.83
2018-02-19T13:53:00.368Z,31.50
2018-02-19T13:55:29.824Z,34.07
2018-02-19T13:57:59.188Z,38.50
2018-02-19T14:00:28.168Z,31.83
2018-02-19T14:02:57.273Z,30.93
2018-02-19T14:05:26.240Z,34.30
2018-02-19T14:07:55.620Z,37.80
2018-02-19T14:10:25.012Z,30.63
2018-02-19T14:12:53.964Z,32.43
2018-02-19T14:15:23.349Z,30.67
2018-02-19T14:17:53.061Z,33.93
2018-02-19T14:20:22.896Z,34.27
2018-02-19T14:22:52.301Z,30.20
2018-02-19T14:25:21.780Z,30.80
2018-02-19T14:27:50.746Z,34.70
2018-02-19T14:30:19.722Z,32.10
2018-02-19T14:32:48.722Z,34.63
2018-02-19T14:35:18.098Z,34.53
2018-02-19T14:37:47.087Z,35.23
2018-02-19T14:40:16.866Z,36.40
2018-02-19T14:42:45.816Z,32.77
2018-02-19T14:45:16.289Z,34.30
2018-02-19T14:47:45.657Z,35.83
2018-02-19T14:50:15.433Z,30.77
2018-02-19T14:52:44.411Z,35.87
2018-02-19T14:55:13.780Z,37.40
2018-02-19T14:57:43.551Z,35.40
2018-02-19T15:00:12.585Z,30.53
2018-02-19T15:02:41.603Z,37.43
2018-02-19T15:05:11.697Z,33.03
2018-02-19T15:07:41.443Z,37.93
2018-02-19T15:10:10.437Z,41.00
2018-02-19T15:12:40.525Z,37.50
2018-02-19T15:15:09.909Z,39.60
2018-02-19T15:17:39.626Z,34.67
2018-02-19T15:20:09.371Z,32.50
2018-02-19T15:22:39.477Z,35.87
2018-02-19T15:25:08.842Z,39.63
2018-02-19T15:27:38.571Z,36.67
2018-02-19T15:30:08.444Z,37.90
2018-02-19T15:32:37.414Z,36.90
2018-02-19T15:35:06.386Z,39.77
2018-02-19T15:37:35.321Z,40.87
2018-02-19T15:40:04.758Z,36.70
2018-02-19T15:42:33.751Z,35.30
2018-02-19T15:45:03.104Z,39.23
2018-02-19T15:47:32.887Z,37.17
2018-02-19T15:50:02.633Z,36.47
2018-02-19T15:52:31.600Z,40.80
2018-02-19T15:55:00.574Z,39.03
2018-02-19T15:57:30.390Z,39.37
2018-02-19T15:59:59.340Z,34.17
2018-02-19T16:02:28.367Z,42.23
2018-02-19T16:04:58.080Z,38.93
2018-02-19T16:07:27.159Z,40.97
2018-02-19T16:09:56.106Z,39.37
2018-02-19T16:12:25.093Z,36.13
2018-02-19T16:14:54.796Z,38.40
2018-02-19T16:17:24.728Z,41.20
2018-02-19T16:19:54.532Z,39.43
2018-02-19T16:22:23.894Z,41.97
2018-02-19T16:24:53.740Z,44.77
2018-02-19T16:27:23.600Z,36.73
2018-02-19T16:29:53.093Z,37.73
2018-02-19T16:32:23.341Z,34.50
2018-02-19T16:34:52.779Z,38.80
2018-02-19T16:37:22.626Z,42.37
2018-02-19T16:40:19.011Z,38.83
2018-02-19T16:42:48.136Z,41.20
2018-02-19T16:45:18.241Z,47.70
2018-02-19T16:47:47.333Z,37.87
2018-02-19T16:50:17.296Z,35.17
2018-02-19T16:52:47.159Z,38.17
2018-02-19T16:55:16.237Z,38.70
2018-02-19T16:57:47.215Z,37.63
2018-02-19T17:00:16.301Z,42.63
2018-02-19T17:02:45.300Z,39.10
2018-02-19T17:05:15.865Z,42.67
2018-02-19T17:07:46.647Z,42.20
2018-02-19T17:10:15.984Z,41.30
2018-02-19T17:12:44.933Z,42.17
2018-02-19T17:15:14.700Z,39.87
2018-02-19T17:17:43.676Z,45.83
2018-02-19T17:20:12.697Z,43.77
2018-02-19T17:22:42.433Z,44.23
2018-02-19T17:25:11.403Z,46.33
2018-02-19T17:27:40.893Z,36.20
2018-02-19T17:30:09.837Z,39.30
2018-02-19T17:32:39.569Z,43.27
2018-02-19T17:35:09.210Z,44.30
2018-02-19T17:37:38.544Z,40.70
2018-02-19T17:40:07.533Z,46.80
2018-02-19T17:42:36.547Z,46.07
2018-02-19T17:45:05.974Z,46.37
2018-02-19T17:47:36.459Z,46.43
2018-02-19T17:50:05.447Z,44.40
2018-02-19T17:52:34.877Z,49.00
2018-02-19T17:55:04.618Z,51.50
2018-02-19T17:57:33.993Z,49.73
2018-02-19T18:00:03.693Z,44.07
2018-02-19T18:02:32.669Z,41.43
2018-02-19T18:05:01.698Z,48.67
2018-02-19T18:07:30.726Z,45.20
2018-02-19T18:09:59.705Z,39.80
2018-02-19T18:12:29.502Z,47.37
2018-02-19T18:14:58.462Z,46.80
2018-02-19T18:17:27.423Z,41.60
2018-02-19T18:19:56.412Z,45.40
2018-02-19T18:22:26.148Z,43.83
2018-02-19T18:24:55.999Z,49.37
2018-02-19T18:27:24.987Z,53.87
2018-02-19T18:29:54.685Z,40.43
2018-02-19T18:32:23.648Z,42.03
2018-02-19T18:34:52.684Z,50.20
2018-02-19T18:37:21.647Z,45.97
2018-02-19T18:39:51.367Z,50.50
2018-02-19T18:42:21.159Z,44.13
2018-02-19T18:44:50.123Z,54.43
2018-02-19T18:47:19.132Z,54.03
2018-02-19T18:49:48.859Z,53.50
2018-02-19T18:52:18.640Z,54.90
2018-02-19T18:54:47.634Z,53.37
2018-02-19T18:57:16.609Z,57.43
2018-02-19T18:59:46.421Z,53.20
2018-02-19T19:02:16.820Z,51.30
2018-02-19T19:04:46.706Z,57.90
2018-02-19T19:07:28.192Z,58.93
2018-02-19T19:23:32.134Z,43.37
2018-02-19T19:26:02.054Z,49.07
2018-02-19T19:28:32.943Z,63.87
2018-02-19T19:31:02.728Z,58.13
2018-02-19T19:33:32.154Z,51.13
2018-02-19T19:36:01.619Z,47.00
2018-02-19T19:38:30.569Z,49.70
2018-02-19T19:40:59.609Z,53.57
2018-02-19T19:43:28.660Z,52.00
2018-02-19T19:45:57.677Z,51.07
2018-02-19T19:48:27.485Z,52.70
2018-02-19T19:50:56.527Z,50.23
2018-02-19T19:53:26.188Z,45.67
2018-02-19T19:55:56.162Z,51.43
2018-02-19T19:58:25.174Z,51.10
2018-02-19T20:00:54.214Z,53.00
2018-02-19T20:03:23.268Z,58.77
2018-02-19T20:05:52.280Z,50.43
2018-02-19T20:08:22.361Z,48.07
2018-02-19T20:10:51.632Z,50.30
2018-02-19T20:13:20.639Z,53.43
2018-02-19T20:15:50.557Z,55.50
2018-02-19T20:18:19.574Z,47.80
2018-02-19T20:20:48.696Z,48.47
2018-02-19T20:23:18.467Z,50.93
2018-02-19T20:25:47.472Z,50.43
2018-02-19T20:28:16.955Z,53.70
2018-02-19T20:30:46.914Z,46.47
2018-02-19T20:33:16.359Z,48.27
2018-02-19T20:35:46.433Z,51.30
2018-02-19T20:38:16.255Z,44.77
2018-02-19T20:40:46.043Z,49.10
2018-02-19T20:43:15.375Z,48.23
2018-02-19T20:45:45.152Z,52.00
2018-02-19T20:48:16.336Z,48.90
2018-02-19T20:50:45.362Z,47.17
2018-02-19T20:53:14.412Z,46.50
2018-02-19T20:55:44.631Z,49.77
2018-02-19T20:58:15.367Z,43.37
2018-02-19T21:00:45.154Z,47.17
2018-02-19T21:03:14.148Z,50.27
2018-02-19T21:05:44.992Z,46.27
2018-02-19T21:08:14.982Z,43.10
2018-02-19T21:10:44.033Z,48.30
2018-02-19T21:13:13.803Z,51.47
2018-02-19T21:15:43.752Z,51.30
2018-02-19T21:18:12.788Z,47.80
2018-02-19T21:20:43.385Z,51.27
2018-02-19T21:23:12.469Z,49.07
2018-02-19T21:25:41.536Z,46.83
2018-02-19T21:28:11.273Z,52.63
2018-02-19T21:30:40.867Z,60.40
2018-02-19T21:33:10.651Z,61.83
2018-02-19T21:35:41.339Z,52.07
2018-02-19T21:38:11.827Z,53.53
2018-02-19T21:40:40.905Z,56.20
2018-02-19T21:43:09.895Z,53.87
2018-02-19T21:45:39.802Z,51.20
2018-02-19T21:48:09.607Z,51.03
2018-02-19T21:50:39.383Z,49.60
2018-02-19T21:53:08.351Z,47.23
2018-02-19T21:55:37.834Z,47.47
2018-02-19T21:58:06.919Z,50.73
2018-02-19T22:00:36.698Z,60.93
2018-02-19T22:03:06.807Z,49.07
2018-02-19T22:05:35.804Z,48.33
2018-02-19T22:08:05.573Z,50.93
2018-02-19T22:10:35.289Z,49.80
2018-02-19T22:13:05.044Z,58.00
2018-02-19T22:15:34.761Z,57.20
2018-02-19T22:18:04.110Z,54.43
2018-02-19T22:20:34.118Z,55.77
2018-02-19T22:23:03.476Z,57.63
2018-02-19T22:25:32.528Z,51.30
2018-02-19T22:28:02.268Z,50.73
2018-02-19T22:30:32.719Z,50.13
2018-02-19T22:33:01.673Z,58.53
2018-02-19T22:35:30.642Z,55.73
2018-02-19T22:38:00.386Z,54.63
2018-02-19T22:40:29.354Z,56.73
2018-02-19T22:42:58.889Z,54.87
2018-02-19T22:45:28.642Z,57.70
2018-02-19T22:47:57.650Z,57.10
2018-02-19T22:50:26.634Z,56.07
2018-02-19T22:52:57.266Z,57.07
2018-02-19T22:55:27.330Z,55.63
2018-02-19T22:57:56.336Z,54.17
2018-02-19T23:00:25.707Z,57.57
2018-02-19T23:02:55.075Z,52.73
2018-02-19T23:05:25.609Z,62.43
2018-02-19T23:07:56.462Z,59.27
2018-02-19T23:10:25.773Z,54.87
2018-02-19T23:12:54.723Z,56.00
2018-02-19T23:15:23.670Z,55.07
2018-02-19T23:17:52.658Z,50.10
2018-02-19T23:20:21.996Z,55.10
2018-02-19T23:22:51.106Z,56.23
2018-02-19T23:25:20.825Z,56.67
2018-02-19T23:27:50.625Z,52.13
2018-02-19T23:30:19.629Z,56.87
2018-02-19T23:32:49.335Z,52.30
2018-02-19T23:35:18.709Z,50.80
2018-02-19T23:37:49.172Z,49.50
2018-02-19T23:40:18.952Z,48.97
2018-02-19T23:42:47.905Z,56.87
2018-02-19T23:45:19.434Z,52.13
2018-02-19T23:47:48.825Z,50.20
2018-02-19T23:50:18.559Z,56.57
2018-02-19T23:52:47.833Z,51.10
2018-02-19T23:55:17.184Z,57.47
2018-02-19T23:57:46.549Z,52.60
